Time;durP1;ratioP1;P1;durP2;ratioP2;P2;SDS_P1;SDS_P2;PMS_P1;PMS_P2;Temp;Humidity;BMP_temperature;BMP_pressure;BME280_temperature;BME280_humidity;BME280_pressure;Samples;Min_cycle;Max_cycle;Signal;HPM_P1;HPM_P2
2022/09/26 00:01:17;;;;;;;15.02;9.02;;;;;;;;;;4918839;29;20276;-59
2022/09/26 00:03:46;;;;;;;10.90;8.75;;;;;;;;;;4919211;29;20205;-59
2022/09/26 00:06:16;;;;;;;13.82;10.70;;;;;;;;;;4919509;29;20213;-59
2022/09/26 00:08:45;;;;;;;18.35;12.70;;;;;;;;;;4919078;29;20201;-59
2022/09/26 00:11:16;;;;;;;17.48;11.52;;;;;;;;;;4918980;29;20201;-59
2022/09/26 00:13:43;;;;;;;16.88;11.65;;;;;;;;;;4918616;29;20729;-59
2022/09/26 00:16:11;;;;;;;18.50;12.10;;;;;;;;;;4919135;29;20287;-59
2022/09/26 00:18:39;;;;;;;15.52;12.32;;;;;;;;;;4915381;29;20295;-59
2022/09/26 00:21:09;;;;;;;17.35;11.38;;;;;;;;;;4918499;29;20205;-59
2022/09/26 00:23:36;;;;;;;90.00;15.25;;;;;;;;;;4918496;29;20208;-59
2022/09/26 00:26:04;;;;;;;17.40;11.88;;;;;;;;;;4918586;29;20280;-60
2022/09/26 00:28:31;;;;;;;20.75;12.27;;;;;;;;;;4918078;29;20524;-59
2022/09/26 00:31:08;;;;;;;19.38;12.32;;;;;;;;;;4886277;29;20208;-59
2022/09/26 00:33:35;;;;;;;20.65;13.85;;;;;;;;;;4902217;29;20242;-59
2022/09/26 00:36:03;;;;;;;17.00;11.10;;;;;;;;;;4918582;29;20209;-59
2022/09/26 00:38:30;;;;;;;18.85;12.38;;;;;;;;;;4917306;29;20705;-59
2022/09/26 00:40:58;;;;;;;22.17;14.20;;;;;;;;;;4918486;29;20232;-59
2022/09/26 00:43:29;;;;;;;21.88;15.45;;;;;;;;;;4900642;29;20650;-59
2022/09/26 00:46:01;;;;;;;21.08;14.05;;;;;;;;;;4901947;29;20638;-58
2022/09/26 00:48:29;;;;;;;20.38;15.40;;;;;;;;;;4917871;29;20231;-59
2022/09/26 00:50:56;;;;;;;22.42;15.23;;;;;;;;;;4918676;29;20224;-59
2022/09/26 00:53:29;;;;;;;15.75;11.70;;;;;;;;;;4901776;29;20221;-59
2022/09/26 00:56:04;;;;;;;16.92;12.45;;;;;;;;;;4902726;29;20189;-59
2022/09/26 00:58:37;;;;;;;20.98;15.18;;;;;;;;;;4902716;29;20208;-59
2022/09/26 01:01:05;;;;;;;26.08;17.05;;;;;;;;;;4918651;29;20220;-59
2022/09/26 01:03:33;;;;;;;23.77;16.23;;;;;;;;;;4886632;29;20219;-59
2022/09/26 01:06:00;;;;;;;24.02;15.38;;;;;;;;;;4918364;29;20641;-59
2022/09/26 01:08:32;;;;;;;21.80;15.65;;;;;;;;;;4918191;29;20216;-59
2022/09/26 01:11:00;;;;;;;21.85;15.70;;;;;;;;;;4902103;29;20207;-59
2022/09/26 01:13:27;;;;;;;22.33;14.93;;;;;;;;;;4902076;29;20224;-59
2022/09/26 01:15:56;;;;;;;23.45;16.42;;;;;;;;;;4902366;29;20646;-59
2022/09/26 01:18:25;;;;;;;27.17;17.02;;;;;;;;;;4918910;29;20215;-59
2022/09/26 01:21:00;;;;;;;27.40;17.25;;;;;;;;;;4922028;29;20220;-59
2022/09/26 01:23:39;;;;;;;20.30;13.27;;;;;;;;;;4922230;29;20576;-59
2022/09/26 01:26:11;;;;;;;23.55;15.23;;;;;;;;;;4922132;29;20204;-59
2022/09/26 01:28:58;;;;;;;23.35;17.05;;;;;;;;;;4905605;29;20201;-59
2022/09/26 01:32:47;;;;;;;24.67;17.15;;;;;;;;;;4921258;29;20222;-59
2022/09/26 01:34:49;;;;;;;33.08;18.30;;;;;;;;;;4905156;29;20209;-59
2022/09/26 01:37:40;;;;;;;28.88;18.50;;;;;;;;;;4920865;29;20272;-59
2022/09/26 01:40:26;;;;;;;16.08;11.57;;;;;;;;;;4905150;29;20531;-59
2022/09/26 01:43:04;;;;;;;19.02;11.98;;;;;;;;;;4904897;29;20232;-59
2022/09/26 01:45:44;;;;;;;13.93;10.90;;;;;;;;;;4905346;29;20220;-59
2022/09/26 01:48:15;;;;;;;17.70;10.93;;;;;;;;;;4904810;29;20233;-59
2022/09/26 01:50:52;;;;;;;23.65;15.48;;;;;;;;;;4890363;29;20539;-59
2022/09/26 01:53:28;;;;;;;25.42;16.38;;;;;;;;;;4921495;29;20686;-59
2022/09/26 01:56:05;;;;;;;26.42;16.83;;;;;;;;;;4920706;29;20209;-59
2022/09/26 01:58:43;;;;;;;28.60;18.40;;;;;;;;;;4889910;29;20216;-59
2022/09/26 02:01:13;;;;;;;35.05;18.63;;;;;;;;;;4889214;29;20658;-59
2022/09/26 02:03:45;;;;;;;22.75;16.55;;;;;;;;;;4889568;29;20244;-59
2022/09/26 02:06:23;;;;;;;25.73;17.40;;;;;;;;;;4904776;29;20220;-60
2022/09/26 02:08:55;;;;;;;24.08;17.45;;;;;;;;;;4920273;29;20538;-59
2022/09/26 02:11:24;;;;;;;28.52;19.25;;;;;;;;;;4904350;29;20225;-60
2022/09/26 02:13:58;;;;;;;27.05;18.30;;;;;;;;;;4920133;29;20220;-59
2022/09/26 02:16:36;;;;;;;26.20;17.50;;;;;;;;;;4904775;29;20705;-59
2022/09/26 02:19:09;;;;;;;26.90;18.00;;;;;;;;;;4920474;29;20232;-59
2022/09/26 02:21:36;;;;;;;29.80;19.02;;;;;;;;;;4889202;29;20205;-59
2022/09/26 02:24:03;;;;;;;30.00;18.98;;;;;;;;;;4919807;29;20216;-59
2022/09/26 02:26:30;;;;;;;24.75;17.80;;;;;;;;;;4904252;29;20630;-59
2022/09/26 02:29:00;;;;;;;25.65;18.30;;;;;;;;;;4919975;29;20208;-59
2022/09/26 02:31:30;;;;;;;27.23;18.42;;;;;;;;;;4904158;29;20638;-59
2022/09/26 02:33:57;;;;;;;26.38;18.80;;;;;;;;;;4888789;29;20229;-59
2022/09/26 02:36:26;;;;;;;29.60;19.48;;;;;;;;;;4903969;29;20213;-59
2022/09/26 02:38:53;;;;;;;28.88;19.30;;;;;;;;;;4904160;29;20240;-59
2022/09/26 02:41:51;;;;;;;25.63;18.30;;;;;;;;;;4920330;29;20217;-59
2022/09/26 02:44:42;;;;;;;29.10;19.17;;;;;;;;;;4919798;29;20613;-59
2022/09/26 02:47:34;;;;;;;27.83;19.30;;;;;;;;;;4894383;29;20224;-59
2022/09/26 02:50:50;;;;;;;28.38;19.15;;;;;;;;;;4919311;29;20662;-59
2022/09/26 02:53:21;;;;;;;26.30;19.75;;;;;;;;;;4904018;29;20244;-59
2022/09/26 02:55:54;;;;;;;26.83;18.77;;;;;;;;;;4903986;29;20208;-59
2022/09/26 02:58:41;;;;;;;24.90;18.70;;;;;;;;;;4903753;29;20216;-59
2022/09/26 03:01:30;;;;;;;25.80;18.20;;;;;;;;;;4919469;29;20189;-59
2022/09/26 03:04:35;;;;;;;26.50;19.33;;;;;;;;;;4903769;29;20213;-59
2022/09/26 03:07:05;;;;;;;24.33;18.60;;;;;;;;;;4862384;29;20244;-60
2022/09/26 03:09:33;;;;;;;29.50;20.13;;;;;;;;;;4847057;29;20214;-59
2022/09/26 03:12:02;;;;;;;26.90;19.88;;;;;;;;;;4862618;29;20225;-59
2022/09/26 03:14:31;;;;;;;30.17;19.83;;;;;;;;;;4862103;29;20226;-59
2022/09/26 03:16:59;;;;;;;28.75;20.88;;;;;;;;;;4862046;29;20218;-59
2022/09/26 03:19:31;;;;;;;27.90;21.15;;;;;;;;;;4862181;29;20294;-59
2022/09/26 03:21:58;;;;;;;30.70;21.83;;;;;;;;;;4846970;29;20304;-59
2022/09/26 03:24:25;;;;;;;28.83;19.90;;;;;;;;;;4862286;29;20314;-60
2022/09/26 03:26:55;;;;;;;25.58;19.58;;;;;;;;;;4846833;29;20211;-59
2022/09/26 03:29:24;;;;;;;26.17;20.33;;;;;;;;;;4862191;29;20557;-59
2022/09/26 03:31:51;;;;;;;26.67;19.02;;;;;;;;;;4861726;29;20211;-60
2022/09/26 03:34:19;;;;;;;31.80;21.13;;;;;;;;;;4861142;29;20310;-59
2022/09/26 03:36:48;;;;;;;26.38;19.13;;;;;;;;;;4861974;29;20207;-59
2022/09/26 03:39:16;;;;;;;24.88;18.30;;;;;;;;;;4846115;29;20640;-59
2022/09/26 03:41:56;;;;;;;31.20;20.75;;;;;;;;;;4910994;29;20711;-59
2022/09/26 03:44:28;;;;;;;25.70;19.95;;;;;;;;;;4902677;29;20205;-59
2022/09/26 03:47:11;;;;;;;28.17;20.05;;;;;;;;;;4919660;29;20219;-59
2022/09/26 03:49:40;;;;;;;30.35;19.83;;;;;;;;;;4918277;29;20299;-59
2022/09/26 03:52:10;;;;;;;26.65;19.02;;;;;;;;;;4918406;29;20211;-59
2022/09/26 03:54:38;;;;;;;28.70;19.38;;;;;;;;;;4918173;29;20540;-59
2022/09/26 03:57:06;;;;;;;30.67;19.33;;;;;;;;;;4902544;29;20212;-59
2022/09/26 03:59:37;;;;;;;26.77;18.77;;;;;;;;;;4902518;29;20220;-59
2022/09/26 04:02:05;;;;;;;27.63;19.50;;;;;;;;;;4902190;29;20213;-60
2022/09/26 04:04:37;;;;;;;30.42;18.95;;;;;;;;;;4917116;29;20200;-59
2022/09/26 04:07:04;;;;;;;27.95;20.20;;;;;;;;;;4902976;29;20268;-59
2022/09/26 04:09:31;;;;;;;28.48;20.45;;;;;;;;;;4901385;29;20666;-59
2022/09/26 04:11:59;;;;;;;27.95;20.17;;;;;;;;;;4926509;29;20518;-59
2022/09/26 04:14:27;;;;;;;31.50;20.13;;;;;;;;;;4913947;29;20248;-59
2022/09/26 04:16:58;;;;;;;27.80;18.50;;;;;;;;;;4912772;29;20233;-59
2022/09/26 04:19:28;;;;;;;33.63;18.42;;;;;;;;;;4900603;29;20224;-59
2022/09/26 04:21:57;;;;;;;67.68;17.95;;;;;;;;;;4902136;29;20205;-59
2022/09/26 04:24:25;;;;;;;25.38;16.88;;;;;;;;;;4919685;29;20219;-60
2022/09/26 04:26:52;;;;;;;25.30;17.73;;;;;;;;;;4921267;29;20209;-60
2022/09/26 04:29:19;;;;;;;24.40;17.75;;;;;;;;;;4900960;29;20224;-64
2022/09/26 04:31:56;;;;;;;26.73;17.38;;;;;;;;;;4914196;29;20229;-59
2022/09/26 04:34:30;;;;;;;25.27;16.13;;;;;;;;;;4921528;29;20242;-59
2022/09/26 04:36:59;;;;;;;23.10;15.82;;;;;;;;;;4935071;29;20322;-60
2022/09/26 04:39:26;;;;;;;22.52;15.35;;;;;;;;;;4928142;29;20612;-59
2022/09/26 04:41:53;;;;;;;31.10;13.75;;;;;;;;;;4905022;29;20259;-62
2022/09/26 04:44:20;;;;;;;28.45;15.70;;;;;;;;;;4912942;29;20229;-60
2022/09/26 04:46:47;;;;;;;19.83;14.15;;;;;;;;;;4923330;29;20267;-60
2022/09/26 04:49:18;;;;;;;29.25;15.35;;;;;;;;;;4903015;29;20268;-59
2022/09/26 04:51:46;;;;;;;28.90;16.10;;;;;;;;;;4902798;29;20221;-59
2022/09/26 04:54:15;;;;;;;26.25;15.02;;;;;;;;;;4909918;29;20307;-59
2022/09/26 04:56:42;;;;;;;33.70;16.42;;;;;;;;;;4924966;29;20251;-59
2022/09/26 04:59:09;;;;;;;19.20;13.82;;;;;;;;;;4903408;29;20698;-59
2022/09/26 05:01:57;;;;;;;19.05;13.63;;;;;;;;;;4929590;29;20231;-59
2022/09/26 05:04:32;;;;;;;23.45;13.43;;;;;;;;;;4910896;29;20233;-59
2022/09/26 05:06:59;;;;;;;16.73;13.15;;;;;;;;;;4934199;29;20240;-61
2022/09/26 05:09:29;;;;;;;18.77;13.25;;;;;;;;;;4910198;29;20330;-59
2022/09/26 05:12:05;;;;;;;32.90;12.98;;;;;;;;;;4925476;29;20220;-60
2022/09/26 05:14:34;;;;;;;20.45;13.13;;;;;;;;;;4931297;29;20760;-60
2022/09/26 05:17:03;;;;;;;17.55;12.27;;;;;;;;;;4912084;29;20228;-59
2022/09/26 05:19:31;;;;;;;15.70;11.85;;;;;;;;;;4898364;29;20352;-59
2022/09/26 05:22:17;;;;;;;19.45;11.65;;;;;;;;;;4927570;29;20242;-59
2022/09/26 05:27:31;;;;;;;22.83;14.30;;;;;;;;;;4939893;29;20223;-59
2022/09/26 05:29:59;;;;;;;30.63;15.55;;;;;;;;;;4922885;29;20295;-59
2022/09/26 05:32:28;;;;;;;22.00;15.00;;;;;;;;;;4922587;29;20251;-59
2022/09/26 05:34:56;;;;;;;35.75;15.02;;;;;;;;;;4920004;29;20598;-59
2022/09/26 05:37:25;;;;;;;23.20;15.68;;;;;;;;;;4920012;29;20236;-60
2022/09/26 05:42:43;;;;;;;30.42;16.40;;;;;;;;;;4934403;29;20533;-60
2022/09/26 05:45:12;;;;;;;37.53;14.95;;;;;;;;;;4918321;29;20283;-60
2022/09/26 05:47:41;;;;;;;23.58;14.30;;;;;;;;;;4918654;29;20225;-59
2022/09/26 05:50:09;;;;;;;33.75;14.25;;;;;;;;;;4902613;29;20561;-57
2022/09/26 05:52:38;;;;;;;27.48;14.95;;;;;;;;;;4903036;29;20233;-59
2022/09/26 05:55:07;;;;;;;24.55;15.38;;;;;;;;;;4902904;29;20236;-59
2022/09/26 05:57:57;;;;;;;33.33;15.80;;;;;;;;;;4918968;29;20685;-58
2022/09/26 06:00:37;;;;;;;27.08;17.00;;;;;;;;;;4918637;29;20561;-58
2022/09/26 06:03:04;;;;;;;28.13;16.95;;;;;;;;;;4902553;29;20228;-58
2022/09/26 06:05:44;;;;;;;26.98;17.60;;;;;;;;;;4918322;29;20225;-59
2022/09/26 06:08:14;;;;;;;28.20;16.35;;;;;;;;;;4918557;29;20570;-58
2022/09/26 06:10:54;;;;;;;32.45;18.85;;;;;;;;;;4918434;29;20272;-58
2022/09/26 06:13:22;;;;;;;32.50;18.98;;;;;;;;;;4918443;29;20247;-59
2022/09/26 06:15:50;;;;;;;35.97;20.88;;;;;;;;;;4917803;29;20242;-60
2022/09/26 06:18:18;;;;;;;37.92;22.10;;;;;;;;;;4902646;29;20308;-61
2022/09/26 06:20:45;;;;;;;34.20;22.20;;;;;;;;;;4918029;29;20243;-60
2022/09/26 06:23:13;;;;;;;32.85;21.23;;;;;;;;;;4902595;29;20317;-60
2022/09/26 06:25:44;;;;;;;34.67;21.15;;;;;;;;;;4918062;29;20239;-60
2022/09/26 06:28:11;;;;;;;31.33;21.15;;;;;;;;;;4917915;29;20560;-60
2022/09/26 06:30:38;;;;;;;31.95;20.23;;;;;;;;;;4902217;29;20243;-61
2022/09/26 06:33:11;;;;;;;33.08;21.35;;;;;;;;;;4902204;29;20251;-59
2022/09/26 06:36:09;;;;;;;29.17;20.48;;;;;;;;;;4884048;29;20233;-62
2022/09/26 06:38:37;;;;;;;28.85;20.80;;;;;;;;;;4880351;29;1106278;-59
2022/09/26 06:41:08;;;;;;;31.42;21.00;;;;;;;;;;4919003;29;20753;-59
2022/09/26 06:43:35;;;;;;;34.10;22.75;;;;;;;;;;4918217;29;20288;-60
2022/09/26 06:46:08;;;;;;;33.72;21.80;;;;;;;;;;4919667;29;20559;-59
2022/09/26 06:48:54;;;;;;;29.30;20.17;;;;;;;;;;4918600;29;20232;-59
2022/09/26 06:51:40;;;;;;;30.38;21.25;;;;;;;;;;4902861;29;20216;-60
2022/09/26 06:54:09;;;;;;;31.83;20.10;;;;;;;;;;4918305;29;20251;-59
2022/09/26 06:56:37;;;;;;;28.15;21.35;;;;;;;;;;4919705;29;20244;-60
2022/09/26 06:59:04;;;;;;;29.00;21.40;;;;;;;;;;4917961;29;20316;-59
2022/09/26 07:01:33;;;;;;;28.38;21.00;;;;;;;;;;4918508;29;20331;-59
2022/09/26 07:04:09;;;;;;;32.75;21.17;;;;;;;;;;4917599;29;20276;-59
2022/09/26 07:06:42;;;;;;;30.17;22.45;;;;;;;;;;4903162;29;20666;-60
2022/09/26 07:09:10;;;;;;;35.30;24.50;;;;;;;;;;4918537;29;20698;-60
2022/09/26 07:11:49;;;;;;;29.20;20.83;;;;;;;;;;4919511;29;20227;-60
2022/09/26 07:14:36;;;;;;;32.53;22.85;;;;;;;;;;4909845;29;20244;-61
2022/09/26 07:17:40;;;;;;;30.08;21.52;;;;;;;;;;4878400;29;20225;-61
2022/09/26 07:20:26;;;;;;;31.65;23.17;;;;;;;;;;4865791;29;20241;-59
2022/09/26 07:23:10;;;;;;;31.98;23.40;;;;;;;;;;4864250;29;20282;-59
2022/09/26 07:25:43;;;;;;;35.78;23.77;;;;;;;;;;4864024;29;20314;-61
2022/09/26 07:28:11;;;;;;;33.85;24.08;;;;;;;;;;4863767;29;20238;-60
2022/09/26 07:30:57;;;;;;;31.17;24.00;;;;;;;;;;4864192;29;20230;-59
2022/09/26 07:33:43;;;;;;;30.67;23.20;;;;;;;;;;4879205;29;20233;-60
2022/09/26 07:36:10;;;;;;;34.15;24.10;;;;;;;;;;4879683;29;20230;-60
2022/09/26 07:38:38;;;;;;;33.67;24.45;;;;;;;;;;4863609;29;20325;-60
2022/09/26 07:41:09;;;;;;;31.20;23.33;;;;;;;;;;4864001;29;20722;-59
2022/09/26 07:43:38;;;;;;;32.60;23.85;;;;;;;;;;4863307;29;20234;-61
2022/09/26 07:52:10;;;;;;;29.05;22.67;;;;;;;;;;4869638;29;20230;-59
2022/09/26 07:54:45;;;;;;;33.80;23.55;;;;;;;;;;4895941;29;20261;-60
2022/09/26 07:57:34;;;;;;;32.75;23.60;;;;;;;;;;4893112;29;20629;-58
2022/09/26 08:00:20;;;;;;;32.70;24.27;;;;;;;;;;4900100;29;20221;-58
2022/09/26 08:03:03;;;;;;;33.53;25.40;;;;;;;;;;4880016;29;20214;-59
2022/09/26 08:05:35;;;;;;;35.10;24.70;;;;;;;;;;4880580;29;20214;-58
2022/09/26 08:08:03;;;;;;;34.58;25.58;;;;;;;;;;4896403;29;20226;-59
2022/09/26 08:11:03;;;;;;;36.80;24.73;;;;;;;;;;4899685;29;20642;-58
2022/09/26 08:13:48;;;;;;;36.47;26.55;;;;;;;;;;4900282;29;20225;-58
2022/09/26 08:16:21;;;;;;;32.10;25.17;;;;;;;;;;4900434;29;20213;-58
2022/09/26 08:18:52;;;;;;;32.42;25.08;;;;;;;;;;4895929;29;20620;-58
2022/09/26 08:21:21;;;;;;;30.65;24.60;;;;;;;;;;4883094;29;20636;-59
2022/09/26 08:23:50;;;;;;;36.65;26.17;;;;;;;;;;4896683;29;20218;-58
2022/09/26 08:26:37;;;;;;;34.15;26.17;;;;;;;;;;4893717;29;20299;-58
2022/09/26 08:29:17;;;;;;;37.65;26.73;;;;;;;;;;4883048;29;20213;-58
2022/09/26 08:31:49;;;;;;;35.40;27.65;;;;;;;;;;4880279;29;20549;-58
2022/09/26 08:34:16;;;;;;;36.13;27.42;;;;;;;;;;4898578;29;20225;-58
2022/09/26 08:37:17;;;;;;;34.53;26.80;;;;;;;;;;4876252;29;20232;-58
2022/09/26 08:40:02;;;;;;;37.35;30.05;;;;;;;;;;4899755;29;20205;-59
2022/09/26 08:43:06;;;;;;;36.38;27.50;;;;;;;;;;4900019;29;20208;-58
2022/09/26 08:49:22;;;;;;;37.30;28.50;;;;;;;;;;4879772;29;20231;-58
2022/09/26 08:51:55;;;;;;;36.83;29.27;;;;;;;;;;4896017;29;20207;-58
2022/09/26 08:54:38;;;;;;;35.92;28.17;;;;;;;;;;4883445;29;20304;-58
2022/09/26 08:57:21;;;;;;;38.47;28.95;;;;;;;;;;4881075;29;20206;-59
2022/09/26 08:59:49;;;;;;;37.17;28.60;;;;;;;;;;4895470;29;20651;-58
2022/09/26 09:02:31;;;;;;;38.55;30.00;;;;;;;;;;4882786;29;20206;-58
2022/09/26 09:05:26;;;;;;;34.20;26.30;;;;;;;;;;4896155;29;20191;-59
2022/09/26 09:07:55;;;;;;;27.77;22.27;;;;;;;;;;4900245;29;20209;-58
2022/09/26 09:10:30;;;;;;;26.60;20.40;;;;;;;;;;4867736;29;20209;-58
2022/09/26 09:13:30;;;;;;;25.08;21.67;;;;;;;;;;4896532;29;20207;-58
2022/09/26 09:16:38;;;;;;;20.80;17.92;;;;;;;;;;4879488;29;20242;-58
2022/09/26 09:19:55;;;;;;;27.75;19.67;;;;;;;;;;4878003;29;20201;-58
2022/09/26 09:23:22;;;;;;;23.90;18.05;;;;;;;;;;4846288;29;20259;-58
2022/09/26 09:26:12;;;;;;;22.75;16.40;;;;;;;;;;4860672;29;20215;-58
2022/09/26 09:29:05;;;;;;;24.23;18.92;;;;;;;;;;4845161;29;20212;-58
2022/09/26 09:31:40;;;;;;;18.52;14.48;;;;;;;;;;4860577;29;20225;-58
2022/09/26 09:34:28;;;;;;;17.15;14.65;;;;;;;;;;4847711;29;20234;-58
2022/09/26 09:37:20;;;;;;;18.67;15.02;;;;;;;;;;4847932;29;20207;-58
2022/09/26 09:40:17;;;;;;;18.45;14.38;;;;;;;;;;4849445;29;20211;-59
2022/09/26 09:43:04;;;;;;;19.25;14.23;;;;;;;;;;4864468;29;20234;-58
2022/09/26 09:45:44;;;;;;;18.60;13.18;;;;;;;;;;4848757;29;20657;-58
2022/09/26 09:48:14;;;;;;;15.85;13.10;;;;;;;;;;4848649;29;20625;-58
2022/09/26 09:50:49;;;;;;;15.80;12.52;;;;;;;;;;4863968;29;20225;-58
2022/09/26 09:53:25;;;;;;;13.98;12.45;;;;;;;;;;4863829;29;20290;-58
2022/09/26 09:56:20;;;;;;;15.18;11.93;;;;;;;;;;4865742;29;20342;-58
2022/09/26 09:59:02;;;;;;;15.85;11.45;;;;;;;;;;4901751;29;20260;-59
2022/09/26 10:01:40;;;;;;;15.45;11.88;;;;;;;;;;4901438;29;20224;-58
2022/09/26 10:04:30;;;;;;;8.52;7.43;;;;;;;;;;4886462;29;20520;-58
2022/09/26 10:06:58;;;;;;;10.07;8.18;;;;;;;;;;4901892;29;20260;-58
2022/09/26 10:09:29;;;;;;;12.30;8.15;;;;;;;;;;4901547;29;20272;-58
2022/09/26 10:12:28;;;;;;;10.50;8.70;;;;;;;;;;4902386;29;20558;-58
2022/09/26 10:15:18;;;;;;;8.02;5.95;;;;;;;;;;4902425;29;20237;-58
2022/09/26 10:18:21;;;;;;;7.25;6.13;;;;;;;;;;4881886;29;20217;-58
2022/09/26 10:21:15;;;;;;;9.40;6.40;;;;;;;;;;4901174;29;20268;-58
2022/09/26 10:23:46;;;;;;;8.60;6.65;;;;;;;;;;4901113;29;20698;-58
2022/09/26 10:26:39;;;;;;;18.73;5.63;;;;;;;;;;4901073;29;20220;-58
2022/09/26 10:29:33;;;;;;;6.60;5.30;;;;;;;;;;4901247;29;20225;-58
2022/09/26 10:32:01;;;;;;;6.65;5.13;;;;;;;;;;4901187;29;20206;-58
2022/09/26 10:34:31;;;;;;;8.25;5.25;;;;;;;;;;4901075;29;20213;-58
2022/09/26 10:37:21;;;;;;;6.40;5.68;;;;;;;;;;4900800;29;20224;-58
2022/09/26 10:42:45;;;;;;;8.18;5.82;;;;;;;;;;4920162;29;20205;-58
2022/09/26 10:45:16;;;;;;;7.80;6.13;;;;;;;;;;4889015;29;20212;-58
2022/09/26 10:48:05;;;;;;;11.80;6.50;;;;;;;;;;4920712;29;20201;-58
2022/09/26 10:51:00;;;;;;;7.60;6.53;;;;;;;;;;4897218;29;20574;-58
2022/09/26 10:54:00;;;;;;;9.45;7.00;;;;;;;;;;4918330;29;20201;-59
2022/09/26 10:56:29;;;;;;;8.88;6.75;;;;;;;;;;4888593;29;20684;-58
2022/09/26 10:59:04;;;;;;;7.72;5.95;;;;;;;;;;4904338;29;20205;-58
2022/09/26 11:01:37;;;;;;;7.38;6.20;;;;;;;;;;4904564;29;20215;-59
2022/09/26 11:07:28;;;;;;;11.18;7.90;;;;;;;;;;4920129;29;20204;-58
2022/09/26 11:10:30;;;;;;;9.73;7.53;;;;;;;;;;4915550;29;20201;-59
2022/09/26 11:13:22;;;;;;;11.68;9.07;;;;;;;;;;4919035;29;20227;-59
2022/09/26 11:16:10;;;;;;;10.13;8.75;;;;;;;;;;4901251;29;20240;-60
2022/09/26 11:19:01;;;;;;;11.93;8.80;;;;;;;;;;4917996;29;20197;-60
2022/09/26 11:21:53;;;;;;;13.80;10.23;;;;;;;;;;4892445;29;20200;-60
2022/09/26 11:24:44;;;;;;;15.65;12.70;;;;;;;;;;4902393;29;20224;-59
2022/09/26 11:27:18;;;;;;;14.32;12.25;;;;;;;;;;4902641;29;20207;-60
2022/09/26 11:30:01;;;;;;;17.20;12.65;;;;;;;;;;4899730;29;20197;-59
2022/09/26 11:32:31;;;;;;;15.30;12.48;;;;;;;;;;4899835;29;20193;-60
2022/09/26 11:35:33;;;;;;;18.33;12.65;;;;;;;;;;4873751;29;20236;-60
2022/09/26 11:38:25;;;;;;;15.75;12.27;;;;;;;;;;4881930;29;20693;-59
2022/09/26 11:41:35;;;;;;;15.38;11.23;;;;;;;;;;4899833;29;20226;-59
2022/09/26 11:44:21;;;;;;;11.98;9.73;;;;;;;;;;4922881;29;20208;-59
2022/09/26 11:47:45;;;;;;;15.45;10.38;;;;;;;;;;4903209;29;20209;-60
2022/09/26 11:50:23;;;;;;;12.45;10.82;;;;;;;;;;4921447;29;20200;-59
2022/09/26 11:53:16;;;;;;;11.93;9.30;;;;;;;;;;4921227;29;20504;-60
2022/09/26 11:55:53;;;;;;;9.98;8.50;;;;;;;;;;4924767;29;20545;-60
2022/09/26 11:58:49;;;;;;;9.85;8.25;;;;;;;;;;4900963;29;20197;-60
2022/09/26 12:01:26;;;;;;;14.18;10.02;;;;;;;;;;4917395;29;20639;-60
2022/09/26 12:04:23;;;;;;;14.43;9.07;;;;;;;;;;4906830;29;20195;-60
2022/09/26 12:06:54;;;;;;;9.90;8.13;;;;;;;;;;4930328;29;20211;-59
2022/09/26 12:09:40;;;;;;;14.07;8.27;;;;;;;;;;4910225;29;20629;-59
2022/09/26 12:12:14;;;;;;;11.13;8.98;;;;;;;;;;4924499;29;20219;-58
2022/09/26 12:15:26;;;;;;;11.27;9.73;;;;;;;;;;4914311;29;20196;-60
2022/09/26 12:18:11;;;;;;;13.00;10.00;;;;;;;;;;4926135;29;20203;-59
2022/09/26 12:21:00;;;;;;;11.05;9.20;;;;;;;;;;4924479;29;20200;-60
2022/09/26 12:23:57;;;;;;;11.65;9.05;;;;;;;;;;4919326;29;20188;-60
2022/09/26 12:26:43;;;;;;;11.77;9.55;;;;;;;;;;4925958;29;20204;-59
2022/09/26 12:29:31;;;;;;;14.48;9.45;;;;;;;;;;4905256;29;20229;-61
2022/09/26 12:32:34;;;;;;;12.70;9.75;;;;;;;;;;4923880;29;20703;-60
2022/09/26 12:35:17;;;;;;;12.27;9.77;;;;;;;;;;4841852;29;20211;-60
2022/09/26 12:37:57;;;;;;;11.52;9.23;;;;;;;;;;4828086;29;20255;-61
2022/09/26 12:40:33;;;;;;;11.75;9.45;;;;;;;;;;4846389;29;20772;-61
2022/09/26 12:43:15;;;;;;;13.80;9.75;;;;;;;;;;4844658;29;20343;-60
2022/09/26 12:46:13;;;;;;;12.95;11.00;;;;;;;;;;4848218;29;20635;-61
2022/09/26 12:48:50;;;;;;;14.30;11.20;;;;;;;;;;4833694;29;20577;-59
2022/09/26 12:51:27;;;;;;;16.42;12.48;;;;;;;;;;4846717;29;20227;-60
2022/09/26 12:54:04;;;;;;;16.58;12.75;;;;;;;;;;4852752;29;20230;-60
2022/09/26 12:56:53;;;;;;;16.10;12.23;;;;;;;;;;4853076;29;20242;-60
2022/09/26 12:59:42;;;;;;;17.55;13.48;;;;;;;;;;4834022;29;20226;-60
2022/09/26 13:02:54;;;;;;;15.40;13.20;;;;;;;;;;4851512;29;20223;-60
2022/09/26 13:05:43;;;;;;;17.63;13.73;;;;;;;;;;4859736;29;20242;-59
2022/09/26 13:08:33;;;;;;;15.85;13.13;;;;;;;;;;4851040;29;20554;-59
2022/09/26 13:11:24;;;;;;;17.65;13.55;;;;;;;;;;4918789;29;20670;-60
2022/09/26 13:14:08;;;;;;;16.95;13.38;;;;;;;;;;4915754;29;20674;-59
2022/09/26 13:17:09;;;;;;;17.67;14.63;;;;;;;;;;4902434;29;20240;-60
2022/09/26 13:19:58;;;;;;;19.83;14.27;;;;;;;;;;4845072;29;20240;-60
2022/09/26 13:23:11;;;;;;;22.83;15.48;;;;;;;;;;4855556;29;20235;-59
2022/09/26 13:26:18;;;;;;;22.15;15.35;;;;;;;;;;4806573;29;20588;-58
2022/09/26 13:29:02;;;;;;;20.02;14.80;;;;;;;;;;4806903;29;20239;-60
2022/09/26 13:31:47;;;;;;;21.92;15.23;;;;;;;;;;4789286;29;20234;-59
2022/09/26 13:34:22;;;;;;;22.73;16.35;;;;;;;;;;4805673;29;20328;-60
2022/09/26 13:36:50;;;;;;;19.08;14.90;;;;;;;;;;4792214;29;20267;-59
2022/09/26 13:39:52;;;;;;;23.67;16.55;;;;;;;;;;4794426;29;20244;-59
2022/09/26 13:42:30;;;;;;;22.10;15.77;;;;;;;;;;4802194;29;20232;-60
2022/09/26 13:45:08;;;;;;;22.88;17.50;;;;;;;;;;4784729;29;20236;-59
2022/09/26 13:47:48;;;;;;;25.33;18.00;;;;;;;;;;4812059;29;20228;-59
2022/09/26 13:50:25;;;;;;;24.40;18.45;;;;;;;;;;4787346;29;20504;-62
2022/09/26 13:52:59;;;;;;;25.52;18.77;;;;;;;;;;4804816;29;20228;-60
2022/09/26 13:55:28;;;;;;;25.10;17.92;;;;;;;;;;4830417;29;20246;-60
2022/09/26 13:58:01;;;;;;;26.27;18.08;;;;;;;;;;4912762;29;20230;-60
2022/09/26 14:00:29;;;;;;;21.88;17.77;;;;;;;;;;4925600;29;20311;-61
2022/09/26 14:03:15;;;;;;;26.00;19.13;;;;;;;;;;4910625;29;20224;-59
2022/09/26 14:05:43;;;;;;;24.83;17.80;;;;;;;;;;4923060;29;20224;-60
2022/09/26 14:11:23;;;;;;;25.20;20.27;;;;;;;;;;4928041;29;20216;-59
2022/09/26 14:14:14;;;;;;;23.90;18.55;;;;;;;;;;4925836;29;20223;-60
2022/09/26 14:16:45;;;;;;;26.15;21.27;;;;;;;;;;4926260;29;20236;-60
2022/09/26 14:19:29;;;;;;;27.33;19.25;;;;;;;;;;4926244;29;20221;-60
2022/09/26 14:22:17;;;;;;;23.38;18.17;;;;;;;;;;4923806;29;20234;-60
2022/09/26 14:24:45;;;;;;;25.02;19.10;;;;;;;;;;4925118;29;20225;-59
2022/09/26 14:27:15;;;;;;;22.65;18.52;;;;;;;;;;4923360;29;20228;-60
2022/09/26 14:29:52;;;;;;;25.48;18.45;;;;;;;;;;4923848;29;20280;-60
2022/09/26 14:32:44;;;;;;;25.85;18.05;;;;;;;;;;4907429;29;20685;-59
2022/09/26 14:35:17;;;;;;;29.80;19.73;;;;;;;;;;4916108;29;20319;-61
2022/09/26 14:37:48;;;;;;;45.22;37.83;;;;;;;;;;4919511;29;20253;-59
2022/09/26 14:40:19;;;;;;;40.13;33.95;;;;;;;;;;4918431;29;20694;-58
2022/09/26 14:42:52;;;;;;;21.25;17.25;;;;;;;;;;4918461;29;20220;-59
2022/09/26 14:45:25;;;;;;;23.85;17.95;;;;;;;;;;4903075;29;20224;-58
2022/09/26 14:47:55;;;;;;;22.73;17.95;;;;;;;;;;4915701;29;20537;-58
2022/09/26 14:50:34;;;;;;;21.25;17.20;;;;;;;;;;4918693;29;20232;-58
2022/09/26 14:53:10;;;;;;;21.83;17.83;;;;;;;;;;4904106;29;20225;-58
2022/09/26 14:55:52;;;;;;;21.77;17.60;;;;;;;;;;4925599;29;20299;-59
2022/09/26 14:58:37;;;;;;;20.30;16.05;;;;;;;;;;4921573;29;20224;-58
2022/09/26 15:01:13;;;;;;;61.55;31.58;;;;;;;;;;4910283;29;20277;-58
2022/09/26 15:03:41;;;;;;;28.40;20.58;;;;;;;;;;4899530;29;20240;-57
2022/09/26 15:06:10;;;;;;;25.42;19.42;;;;;;;;;;4923937;29;20216;-58
2022/09/26 15:08:38;;;;;;;20.05;15.45;;;;;;;;;;4939480;29;20638;-58
2022/09/26 15:11:05;;;;;;;20.92;15.25;;;;;;;;;;4938914;29;20649;-58
2022/09/26 15:13:37;;;;;;;152.18;57.30;;;;;;;;;;4938976;29;20216;-58
2022/09/26 15:16:13;;;;;;;114.93;44.70;;;;;;;;;;4922078;29;20241;-58
2022/09/26 15:18:59;;;;;;;39.95;22.70;;;;;;;;;;4919670;29;20205;-58
2022/09/26 15:21:32;;;;;;;47.20;28.52;;;;;;;;;;4935746;29;20618;-59
2022/09/26 15:24:03;;;;;;;31.77;23.10;;;;;;;;;;4914397;29;20229;-59
2022/09/26 15:26:33;;;;;;;21.63;17.65;;;;;;;;;;4919325;29;20228;-59
2022/09/26 15:29:03;;;;;;;104.20;41.72;;;;;;;;;;4926479;29;20232;-60
2022/09/26 15:31:38;;;;;;;42.90;25.92;;;;;;;;;;4927016;29;20221;-59
2022/09/26 15:34:11;;;;;;;50.40;27.25;;;;;;;;;;4917232;29;20230;-59
2022/09/26 15:36:39;;;;;;;85.40;42.17;;;;;;;;;;4916239;29;20272;-60
2022/09/26 15:39:29;;;;;;;50.03;29.80;;;;;;;;;;4904435;29;20334;-60
2022/09/26 15:45:45;;;;;;;69.57;35.88;;;;;;;;;;4937838;29;20234;-59
2022/09/26 15:48:19;;;;;;;75.10;43.47;;;;;;;;;;4847599;29;20307;-59